Ave Maria, Florida
Current Conditions -  °F | °C
As of 9:55 AM on Friday 24 Oct 2014 (Local Time) from KIMM Reporting Station
Clear Clear  
Wind Chill: 75°   Ceiling: Unl
Heat Index: 75°   Visibility: 9mi
Dew Point: 66°   Wind: 14mph
Humidity: 73%   Direction: 30°NNE
Pressure: 29.94"   Gusts: 18mph
Location:  26.4288°N, 81.4387°W
Report Text: KIMM 241355Z AUTO 03012G16KT 9SM CLR 24/19 A2994 RMK A01 P000
Loading
Personal Weather Stations






























Interactive Weather Map
Tropical Storm Tracking
New forecast layout! Learn more

10-Day Weather Forecast

Advertisements
Track Severe Weather on mobile